createdAt,value
2019-05-25T00:07:09.285Z,17.85
2019-05-25T00:17:10.383Z,17.57
2019-05-25T00:27:11.529Z,17.29
2019-05-25T00:37:12.757Z,17.18
2019-05-25T00:47:13.966Z,17.01
2019-05-25T00:57:15.040Z,16.95
2019-05-25T01:07:16.056Z,16.73
2019-05-25T01:17:17.159Z,16.53
2019-05-25T01:27:18.195Z,16.41
2019-05-25T01:37:19.221Z,16.28
2019-05-25T01:47:20.323Z,16.08
2019-05-25T01:57:21.366Z,15.95
2019-05-25T02:07:22.392Z,15.88
2019-05-25T02:17:23.435Z,15.81
2019-05-25T02:27:24.461Z,15.81
2019-05-25T02:37:25.532Z,15.79
2019-05-25T02:47:26.538Z,15.67
2019-05-25T02:57:27.581Z,15.35
2019-05-25T03:07:28.709Z,15.21
2019-05-25T03:17:29.730Z,15.05
2019-05-25T03:27:30.732Z,15.10
2019-05-25T03:37:31.872Z,15.22
2019-05-25T03:47:32.970Z,15.50
2019-05-25T03:57:34.117Z,15.81
2019-05-25T04:07:35.275Z,16.02
2019-05-25T04:17:36.282Z,15.80
2019-05-25T04:27:37.337Z,15.62
2019-05-25T04:37:38.366Z,15.88
2019-05-25T04:47:39.468Z,16.03
2019-05-25T04:57:40.624Z,16.39
2019-05-25T05:07:41.855Z,16.76
2019-05-25T05:17:42.993Z,17.20
2019-05-25T05:27:43.984Z,17.66
2019-05-25T05:37:45.410Z,18.38
2019-05-25T05:47:47.184Z,19.56
2019-05-25T05:57:48.234Z,20.17
2019-05-25T06:07:49.240Z,31.53
2019-05-25T06:17:50.357Z,41.30
2019-05-25T06:27:51.499Z,44.29
2019-05-25T06:37:52.533Z,44.92
2019-05-25T06:47:54.122Z,45.87
2019-05-25T06:57:55.240Z,48.33
2019-05-25T07:07:56.268Z,50.06
2019-05-25T07:17:57.333Z,46.76
2019-05-25T07:28:00.277Z,48.13
2019-05-25T07:38:01.531Z,49.02
2019-05-25T07:48:02.878Z,51.61
2019-05-25T07:58:16.965Z,55.55
2019-05-25T08:08:07.223Z,55.97
2019-05-25T08:18:08.408Z,46.91
2019-05-25T08:28:09.627Z,47.29
2019-05-25T08:38:10.663Z,52.10
2019-05-25T08:48:13.859Z,56.73
2019-05-25T08:58:15.353Z,57.95
2019-05-25T09:08:16.883Z,53.73
2019-05-25T09:18:18.252Z,43.57
2019-05-25T09:28:21.022Z,40.18
2019-05-25T09:38:22.241Z,38.94
2019-05-25T09:48:23.535Z,41.13
2019-05-25T09:58:24.828Z,40.55
2019-05-25T10:08:26.251Z,42.73
2019-05-25T10:18:28.475Z,45.68
2019-05-25T10:28:29.529Z,45.27
2019-05-25T10:38:31.012Z,44.58
2019-05-25T10:48:34.525Z,46.50
2019-05-25T10:58:35.704Z,47.43
2019-05-25T11:08:36.985Z,44.23
2019-05-25T11:18:38.132Z,38.60
2019-05-25T11:28:39.321Z,37.23
2019-05-25T11:38:40.477Z,35.94
2019-05-25T11:48:42.108Z,36.51
2019-05-25T11:58:47.526Z,35.67
2019-05-25T12:08:47.152Z,37.44
2019-05-25T12:18:48.265Z,37.70
2019-05-25T12:28:49.328Z,33.83
2019-05-25T12:38:50.462Z,32.67
2019-05-25T12:48:51.489Z,30.46
2019-05-25T12:58:52.543Z,29.47
2019-05-25T13:08:53.598Z,29.30
2019-05-25T13:18:55.636Z,29.18
2019-05-25T13:28:57.086Z,30.29
2019-05-25T13:38:58.693Z,30.95
2019-05-25T13:49:00.014Z,30.29
2019-05-25T13:59:01.030Z,30.46
2019-05-25T14:09:04.268Z,30.12
2019-05-25T14:19:05.276Z,28.51
2019-05-25T14:29:07.408Z,27.71
2019-05-25T14:39:08.446Z,27.42
2019-05-25T14:49:09.714Z,27.53
2019-05-25T14:59:10.767Z,26.83
2019-05-25T15:09:11.905Z,26.89
2019-05-25T15:19:12.924Z,26.86
2019-05-25T15:29:13.963Z,28.51
2019-05-25T15:39:16.201Z,29.58
2019-05-25T15:49:17.314Z,29.27
2019-05-25T15:59:18.344Z,28.80
2019-05-25T16:09:19.401Z,28.02
2019-05-25T16:19:20.408Z,29.21
2019-05-25T16:29:41.473Z,29.88
2019-05-25T16:39:42.537Z,29.63
2019-05-25T16:49:43.666Z,28.15
2019-05-25T16:59:44.667Z,28.35
2019-05-25T17:09:45.824Z,28.03
2019-05-25T17:19:46.834Z,26.30
2019-05-25T17:29:47.885Z,25.47
2019-05-25T17:39:49.234Z,24.76
2019-05-25T17:49:51.883Z,24.24
2019-05-25T17:59:53.094Z,23.93
2019-05-25T18:20:21.490Z,23.18
2019-05-25T18:30:23.656Z,23.00
2019-05-25T18:40:25.146Z,22.40
2019-05-25T18:50:26.594Z,22.20
2019-05-25T19:00:28.032Z,21.93
2019-05-25T19:10:29.472Z,21.81
2019-05-25T19:20:31.631Z,21.48
2019-05-25T19:30:32.777Z,21.12
2019-05-25T19:40:33.801Z,20.66
2019-05-25T19:50:34.983Z,20.15
2019-05-25T20:00:36.165Z,19.67
2019-05-25T20:10:37.205Z,19.19
2019-05-25T20:20:38.323Z,19.19
2019-05-25T20:30:39.804Z,19.02
2019-05-25T20:40:41.065Z,18.86
2019-05-25T20:50:42.443Z,18.74
2019-05-25T21:00:43.485Z,18.63
2019-05-25T21:10:44.606Z,18.37
2019-05-25T21:20:45.719Z,18.08
2019-05-25T21:30:46.889Z,17.81
2019-05-25T21:40:48.022Z,17.75
2019-05-25T21:50:50.460Z,17.54
2019-05-25T22:00:52.023Z,17.56
2019-05-25T22:10:53.254Z,17.48
2019-05-25T22:20:54.283Z,17.57
2019-05-25T22:30:55.320Z,17.47
2019-05-25T22:40:56.356Z,17.51
2019-05-25T22:50:57.394Z,17.65
2019-05-25T23:00:58.429Z,17.89
2019-05-25T23:10:59.785Z,17.77
2019-05-25T23:21:01.589Z,17.72
2019-05-25T23:31:02.998Z,17.52
2019-05-25T23:41:04.030Z,17.46
2019-05-25T23:51:05.288Z,17.39
